sensor_id;sensor_type;location;lat;lon;timestamp;P1;durP1;ratioP1;P2;durP2;ratioP2
74689;SDS011;63221;51.860;-2.188;2023-07-20T00:01:19;2.33;;;1.20;;
74689;SDS011;63221;51.860;-2.188;2023-07-20T00:03:45;3.37;;;1.30;;
74689;SDS011;63221;51.860;-2.188;2023-07-20T00:06:20;3.27;;;2.00;;
74689;SDS011;63221;51.860;-2.188;2023-07-20T00:08:46;3.15;;;1.33;;
74689;SDS011;63221;51.860;-2.188;2023-07-20T00:11:11;1.93;;;0.90;;
74689;SDS011;63221;51.860;-2.188;2023-07-20T00:13:38;2.75;;;1.27;;
74689;SDS011;63221;51.860;-2.188;2023-07-20T00:16:04;4.72;;;1.45;;
74689;SDS011;63221;51.860;-2.188;2023-07-20T00:18:29;1.57;;;1.00;;
74689;SDS011;63221;51.860;-2.188;2023-07-20T00:20:55;2.20;;;1.83;;
74689;SDS011;63221;51.860;-2.188;2023-07-20T00:23:20;2.10;;;1.33;;
74689;SDS011;63221;51.860;-2.188;2023-07-20T00:25:47;2.58;;;1.50;;
74689;SDS011;63221;51.860;-2.188;2023-07-20T00:28:13;1.93;;;1.30;;
74689;SDS011;63221;51.860;-2.188;2023-07-20T00:30:39;2.27;;;1.40;;
74689;SDS011;63221;51.860;-2.188;2023-07-20T00:33:05;4.30;;;1.02;;
74689;SDS011;63221;51.860;-2.188;2023-07-20T00:35:31;2.08;;;1.48;;
74689;SDS011;63221;51.860;-2.188;2023-07-20T00:37:57;2.40;;;1.10;;
74689;SDS011;63221;51.860;-2.188;2023-07-20T00:40:22;3.50;;;1.87;;
74689;SDS011;63221;51.860;-2.188;2023-07-20T00:42:47;1.60;;;0.95;;
74689;SDS011;63221;51.860;-2.188;2023-07-20T00:45:13;3.80;;;1.17;;
74689;SDS011;63221;51.860;-2.188;2023-07-20T00:47:38;2.93;;;1.00;;
74689;SDS011;63221;51.860;-2.188;2023-07-20T00:50:04;3.03;;;0.97;;
74689;SDS011;63221;51.860;-2.188;2023-07-20T00:52:30;2.45;;;1.77;;
74689;SDS011;63221;51.860;-2.188;2023-07-20T00:54:56;3.63;;;1.33;;
74689;SDS011;63221;51.860;-2.188;2023-07-20T00:57:21;3.15;;;1.38;;
74689;SDS011;63221;51.860;-2.188;2023-07-20T00:59:48;3.80;;;1.52;;
74689;SDS011;63221;51.860;-2.188;2023-07-20T01:02:13;2.60;;;0.90;;
74689;SDS011;63221;51.860;-2.188;2023-07-20T01:04:38;1.80;;;1.30;;
74689;SDS011;63221;51.860;-2.188;2023-07-20T01:12:30;1.95;;;1.20;;
74689;SDS011;63221;51.860;-2.188;2023-07-20T01:15:00;1.77;;;1.00;;
74689;SDS011;63221;51.860;-2.188;2023-07-20T01:17:26;2.13;;;1.37;;
74689;SDS011;63221;51.860;-2.188;2023-07-20T01:19:51;2.80;;;1.37;;
74689;SDS011;63221;51.860;-2.188;2023-07-20T01:33:00;2.33;;;1.60;;
74689;SDS011;63221;51.860;-2.188;2023-07-20T01:35:28;4.45;;;1.40;;
74689;SDS011;63221;51.860;-2.188;2023-07-20T01:37:54;2.45;;;1.40;;
74689;SDS011;63221;51.860;-2.188;2023-07-20T01:40:20;2.90;;;2.03;;
74689;SDS011;63221;51.860;-2.188;2023-07-20T01:42:47;2.38;;;1.50;;
74689;SDS011;63221;51.860;-2.188;2023-07-20T01:45:13;2.40;;;1.30;;
74689;SDS011;63221;51.860;-2.188;2023-07-20T01:47:38;3.13;;;1.27;;
74689;SDS011;63221;51.860;-2.188;2023-07-20T01:50:04;4.00;;;2.10;;
74689;SDS011;63221;51.860;-2.188;2023-07-20T01:52:30;2.45;;;1.25;;
74689;SDS011;63221;51.860;-2.188;2023-07-20T01:54:55;3.87;;;2.07;;
74689;SDS011;63221;51.860;-2.188;2023-07-20T01:57:21;3.25;;;1.48;;
74689;SDS011;63221;51.860;-2.188;2023-07-20T01:59:46;3.70;;;1.63;;
74689;SDS011;63221;51.860;-2.188;2023-07-20T02:02:12;4.27;;;1.83;;
74689;SDS011;63221;51.860;-2.188;2023-07-20T02:04:37;4.13;;;1.83;;
74689;SDS011;63221;51.860;-2.188;2023-07-20T02:07:02;2.07;;;1.63;;
74689;SDS011;63221;51.860;-2.188;2023-07-20T02:09:28;3.30;;;1.45;;
74689;SDS011;63221;51.860;-2.188;2023-07-20T02:11:53;3.73;;;1.77;;
74689;SDS011;63221;51.860;-2.188;2023-07-20T02:14:19;3.23;;;2.03;;
74689;SDS011;63221;51.860;-2.188;2023-07-20T02:16:44;3.23;;;1.70;;
74689;SDS011;63221;51.860;-2.188;2023-07-20T02:19:09;2.87;;;1.60;;
74689;SDS011;63221;51.860;-2.188;2023-07-20T02:21:35;2.87;;;1.57;;
74689;SDS011;63221;51.860;-2.188;2023-07-20T02:24:01;2.85;;;1.63;;
74689;SDS011;63221;51.860;-2.188;2023-07-20T02:26:26;2.73;;;1.53;;
74689;SDS011;63221;51.860;-2.188;2023-07-20T02:28:52;2.93;;;1.90;;
74689;SDS011;63221;51.860;-2.188;2023-07-20T02:31:17;2.83;;;1.33;;
74689;SDS011;63221;51.860;-2.188;2023-07-20T02:33:42;4.10;;;1.60;;
74689;SDS011;63221;51.860;-2.188;2023-07-20T02:36:08;2.47;;;1.60;;
74689;SDS011;63221;51.860;-2.188;2023-07-20T02:38:33;4.23;;;1.77;;
74689;SDS011;63221;51.860;-2.188;2023-07-20T02:40:59;2.57;;;1.33;;
74689;SDS011;63221;51.860;-2.188;2023-07-20T02:43:24;2.50;;;1.47;;
74689;SDS011;63221;51.860;-2.188;2023-07-20T02:45:50;2.38;;;1.35;;
74689;SDS011;63221;51.860;-2.188;2023-07-20T02:48:15;4.33;;;1.60;;
74689;SDS011;63221;51.860;-2.188;2023-07-20T02:50:41;3.93;;;1.63;;
74689;SDS011;63221;51.860;-2.188;2023-07-20T02:53:06;2.75;;;1.50;;
74689;SDS011;63221;51.860;-2.188;2023-07-20T02:55:31;2.60;;;1.30;;
74689;SDS011;63221;51.860;-2.188;2023-07-20T02:57:57;3.67;;;1.67;;
74689;SDS011;63221;51.860;-2.188;2023-07-20T03:00:22;2.70;;;1.20;;
74689;SDS011;63221;51.860;-2.188;2023-07-20T03:02:48;3.70;;;1.83;;
74689;SDS011;63221;51.860;-2.188;2023-07-20T03:05:14;3.90;;;1.80;;
74689;SDS011;63221;51.860;-2.188;2023-07-20T03:07:40;3.65;;;1.58;;
74689;SDS011;63221;51.860;-2.188;2023-07-20T03:10:07;3.65;;;1.88;;
74689;SDS011;63221;51.860;-2.188;2023-07-20T03:12:34;2.80;;;1.60;;
74689;SDS011;63221;51.860;-2.188;2023-07-20T03:14:59;3.87;;;1.60;;
74689;SDS011;63221;51.860;-2.188;2023-07-20T03:17:25;3.97;;;1.83;;
74689;SDS011;63221;51.860;-2.188;2023-07-20T03:19:50;2.03;;;1.57;;
74689;SDS011;63221;51.860;-2.188;2023-07-20T03:22:16;2.80;;;1.93;;
74689;SDS011;63221;51.860;-2.188;2023-07-20T03:24:41;2.93;;;1.33;;
74689;SDS011;63221;51.860;-2.188;2023-07-20T03:27:06;3.27;;;1.17;;
74689;SDS011;63221;51.860;-2.188;2023-07-20T03:29:32;2.40;;;1.00;;
74689;SDS011;63221;51.860;-2.188;2023-07-20T03:31:58;3.15;;;1.50;;
74689;SDS011;63221;51.860;-2.188;2023-07-20T03:34:24;5.50;;;2.22;;
74689;SDS011;63221;51.860;-2.188;2023-07-20T03:36:50;3.37;;;1.53;;
74689;SDS011;63221;51.860;-2.188;2023-07-20T03:39:15;2.20;;;1.30;;
74689;SDS011;63221;51.860;-2.188;2023-07-20T03:41:40;3.17;;;1.30;;
74689;SDS011;63221;51.860;-2.188;2023-07-20T03:44:06;2.83;;;1.73;;
74689;SDS011;63221;51.860;-2.188;2023-07-20T03:46:31;2.40;;;1.50;;
74689;SDS011;63221;51.860;-2.188;2023-07-20T03:48:59;3.70;;;1.42;;
74689;SDS011;63221;51.860;-2.188;2023-07-20T03:51:24;4.60;;;1.67;;
74689;SDS011;63221;51.860;-2.188;2023-07-20T03:53:49;3.53;;;1.37;;
74689;SDS011;63221;51.860;-2.188;2023-07-20T03:56:15;2.87;;;1.87;;
74689;SDS011;63221;51.860;-2.188;2023-07-20T03:58:40;3.37;;;2.00;;
74689;SDS011;63221;51.860;-2.188;2023-07-20T04:01:06;3.10;;;1.73;;
74689;SDS011;63221;51.860;-2.188;2023-07-20T04:03:32;3.50;;;2.15;;
74689;SDS011;63221;51.860;-2.188;2023-07-20T04:05:57;2.97;;;1.87;;
74689;SDS011;63221;51.860;-2.188;2023-07-20T04:08:23;5.07;;;2.37;;
74689;SDS011;63221;51.860;-2.188;2023-07-20T04:10:49;2.93;;;1.77;;
74689;SDS011;63221;51.860;-2.188;2023-07-20T04:13:15;3.20;;;1.83;;
74689;SDS011;63221;51.860;-2.188;2023-07-20T04:15:41;2.93;;;1.57;;
74689;SDS011;63221;51.860;-2.188;2023-07-20T04:18:07;4.80;;;1.85;;
74689;SDS011;63221;51.860;-2.188;2023-07-20T04:20:32;4.17;;;2.30;;
74689;SDS011;63221;51.860;-2.188;2023-07-20T04:22:58;3.22;;;2.22;;
74689;SDS011;63221;51.860;-2.188;2023-07-20T04:25:23;4.17;;;2.27;;
74689;SDS011;63221;51.860;-2.188;2023-07-20T04:27:49;2.97;;;2.00;;
74689;SDS011;63221;51.860;-2.188;2023-07-20T04:30:16;6.83;;;1.80;;
74689;SDS011;63221;51.860;-2.188;2023-07-20T04:32:44;3.13;;;2.40;;
74689;SDS011;63221;51.860;-2.188;2023-07-20T04:35:10;3.45;;;2.13;;
74689;SDS011;63221;51.860;-2.188;2023-07-20T04:37:36;5.77;;;2.87;;
74689;SDS011;63221;51.860;-2.188;2023-07-20T04:40:02;3.47;;;1.52;;
74689;SDS011;63221;51.860;-2.188;2023-07-20T04:42:28;4.50;;;2.30;;
74689;SDS011;63221;51.860;-2.188;2023-07-20T04:44:53;3.13;;;2.15;;
74689;SDS011;63221;51.860;-2.188;2023-07-20T04:47:19;4.73;;;2.37;;
74689;SDS011;63221;51.860;-2.188;2023-07-20T04:49:44;4.60;;;1.60;;
74689;SDS011;63221;51.860;-2.188;2023-07-20T04:52:10;4.43;;;2.03;;
74689;SDS011;63221;51.860;-2.188;2023-07-20T04:54:36;4.63;;;2.20;;
74689;SDS011;63221;51.860;-2.188;2023-07-20T04:57:01;5.97;;;2.13;;
74689;SDS011;63221;51.860;-2.188;2023-07-20T04:59:26;3.13;;;1.83;;
74689;SDS011;63221;51.860;-2.188;2023-07-20T05:01:52;5.18;;;2.53;;
74689;SDS011;63221;51.860;-2.188;2023-07-20T05:04:17;3.10;;;2.20;;
74689;SDS011;63221;51.860;-2.188;2023-07-20T05:06:43;5.77;;;2.70;;
74689;SDS011;63221;51.860;-2.188;2023-07-20T05:09:08;5.00;;;2.38;;
74689;SDS011;63221;51.860;-2.188;2023-07-20T05:11:34;2.93;;;2.00;;
74689;SDS011;63221;51.860;-2.188;2023-07-20T05:13:59;4.53;;;2.20;;
74689;SDS011;63221;51.860;-2.188;2023-07-20T05:16:25;4.88;;;2.30;;
74689;SDS011;63221;51.860;-2.188;2023-07-20T05:18:50;4.67;;;2.63;;
74689;SDS011;63221;51.860;-2.188;2023-07-20T05:21:16;5.07;;;2.33;;
74689;SDS011;63221;51.860;-2.188;2023-07-20T05:23:42;5.05;;;2.97;;
74689;SDS011;63221;51.860;-2.188;2023-07-20T05:26:08;4.47;;;2.35;;
74689;SDS011;63221;51.860;-2.188;2023-07-20T05:28:34;5.53;;;2.70;;
74689;SDS011;63221;51.860;-2.188;2023-07-20T05:31:01;5.03;;;2.50;;
74689;SDS011;63221;51.860;-2.188;2023-07-20T05:33:28;7.72;;;3.20;;
74689;SDS011;63221;51.860;-2.188;2023-07-20T05:35:53;4.33;;;2.30;;
74689;SDS011;63221;51.860;-2.188;2023-07-20T05:38:18;5.07;;;2.80;;
74689;SDS011;63221;51.860;-2.188;2023-07-20T05:40:44;5.83;;;2.13;;
74689;SDS011;63221;51.860;-2.188;2023-07-20T05:43:10;4.65;;;2.80;;
74689;SDS011;63221;51.860;-2.188;2023-07-20T05:45:36;5.00;;;2.60;;
74689;SDS011;63221;51.860;-2.188;2023-07-20T05:48:02;5.40;;;2.47;;
74689;SDS011;63221;51.860;-2.188;2023-07-20T05:50:27;4.00;;;2.43;;
74689;SDS011;63221;51.860;-2.188;2023-07-20T05:52:53;6.18;;;2.50;;
74689;SDS011;63221;51.860;-2.188;2023-07-20T05:55:19;2.95;;;2.05;;
74689;SDS011;63221;51.860;-2.188;2023-07-20T05:57:45;5.87;;;2.20;;
74689;SDS011;63221;51.860;-2.188;2023-07-20T06:00:11;7.93;;;1.90;;
74689;SDS011;63221;51.860;-2.188;2023-07-20T06:02:38;4.97;;;2.45;;
74689;SDS011;63221;51.860;-2.188;2023-07-20T06:05:04;3.78;;;1.90;;
74689;SDS011;63221;51.860;-2.188;2023-07-20T06:07:30;4.80;;;2.38;;
74689;SDS011;63221;51.860;-2.188;2023-07-20T06:09:56;3.40;;;2.00;;
74689;SDS011;63221;51.860;-2.188;2023-07-20T06:12:23;5.47;;;2.05;;
74689;SDS011;63221;51.860;-2.188;2023-07-20T06:14:48;4.63;;;2.57;;
74689;SDS011;63221;51.860;-2.188;2023-07-20T06:17:14;4.63;;;2.08;;
74689;SDS011;63221;51.860;-2.188;2023-07-20T06:19:39;5.10;;;2.10;;
74689;SDS011;63221;51.860;-2.188;2023-07-20T06:22:05;3.83;;;1.90;;
74689;SDS011;63221;51.860;-2.188;2023-07-20T06:24:30;4.67;;;2.30;;
74689;SDS011;63221;51.860;-2.188;2023-07-20T06:26:55;6.70;;;2.50;;
74689;SDS011;63221;51.860;-2.188;2023-07-20T06:29:21;4.63;;;2.03;;
74689;SDS011;63221;51.860;-2.188;2023-07-20T06:31:46;4.27;;;2.13;;
74689;SDS011;63221;51.860;-2.188;2023-07-20T06:34:12;5.82;;;2.30;;
74689;SDS011;63221;51.860;-2.188;2023-07-20T06:36:37;4.43;;;2.50;;
74689;SDS011;63221;51.860;-2.188;2023-07-20T06:39:03;4.93;;;2.50;;
74689;SDS011;63221;51.860;-2.188;2023-07-20T06:41:29;5.55;;;3.17;;
74689;SDS011;63221;51.860;-2.188;2023-07-20T06:43:54;6.53;;;2.40;;
74689;SDS011;63221;51.860;-2.188;2023-07-20T06:46:23;3.95;;;2.40;;
74689;SDS011;63221;51.860;-2.188;2023-07-20T06:48:50;3.22;;;2.47;;
74689;SDS011;63221;51.860;-2.188;2023-07-20T06:51:15;5.03;;;2.40;;
74689;SDS011;63221;51.860;-2.188;2023-07-20T06:53:41;3.10;;;1.70;;
74689;SDS011;63221;51.860;-2.188;2023-07-20T06:56:07;4.00;;;2.20;;
74689;SDS011;63221;51.860;-2.188;2023-07-20T06:58:32;5.97;;;2.03;;
74689;SDS011;63221;51.860;-2.188;2023-07-20T07:00:58;4.22;;;2.00;;
74689;SDS011;63221;51.860;-2.188;2023-07-20T07:03:23;2.67;;;2.23;;
74689;SDS011;63221;51.860;-2.188;2023-07-20T07:05:50;2.92;;;2.15;;
74689;SDS011;63221;51.860;-2.188;2023-07-20T07:08:15;3.00;;;1.97;;
74689;SDS011;63221;51.860;-2.188;2023-07-20T07:10:40;4.67;;;2.50;;
74689;SDS011;63221;51.860;-2.188;2023-07-20T07:13:06;4.10;;;2.28;;
74689;SDS011;63221;51.860;-2.188;2023-07-20T07:15:35;3.97;;;2.17;;
74689;SDS011;63221;51.860;-2.188;2023-07-20T07:18:01;5.22;;;2.30;;
74689;SDS011;63221;51.860;-2.188;2023-07-20T07:20:30;4.03;;;2.15;;
74689;SDS011;63221;51.860;-2.188;2023-07-20T07:22:57;7.75;;;2.33;;
74689;SDS011;63221;51.860;-2.188;2023-07-20T07:25:23;6.63;;;2.33;;
74689;SDS011;63221;51.860;-2.188;2023-07-20T07:27:49;4.50;;;2.00;;
74689;SDS011;63221;51.860;-2.188;2023-07-20T07:30:15;5.65;;;2.53;;
74689;SDS011;63221;51.860;-2.188;2023-07-20T07:32:40;5.83;;;2.57;;
74689;SDS011;63221;51.860;-2.188;2023-07-20T07:35:06;5.53;;;2.58;;
74689;SDS011;63221;51.860;-2.188;2023-07-20T07:37:32;5.67;;;2.17;;
74689;SDS011;63221;51.860;-2.188;2023-07-20T07:39:57;8.50;;;2.53;;
74689;SDS011;63221;51.860;-2.188;2023-07-20T07:42:23;5.80;;;1.60;;
74689;SDS011;63221;51.860;-2.188;2023-07-20T07:44:48;6.67;;;2.23;;
74689;SDS011;63221;51.860;-2.188;2023-07-20T07:47:13;6.17;;;2.10;;
74689;SDS011;63221;51.860;-2.188;2023-07-20T07:49:39;5.00;;;2.30;;
74689;SDS011;63221;51.860;-2.188;2023-07-20T07:52:05;3.30;;;2.03;;
74689;SDS011;63221;51.860;-2.188;2023-07-20T07:54:31;4.05;;;2.50;;
74689;SDS011;63221;51.860;-2.188;2023-07-20T07:56:56;4.07;;;2.30;;
74689;SDS011;63221;51.860;-2.188;2023-07-20T07:59:22;5.27;;;2.10;;
74689;SDS011;63221;51.860;-2.188;2023-07-20T08:01:47;3.22;;;2.05;;
74689;SDS011;63221;51.860;-2.188;2023-07-20T08:04:13;5.77;;;2.23;;
74689;SDS011;63221;51.860;-2.188;2023-07-20T08:06:38;3.53;;;1.77;;
74689;SDS011;63221;51.860;-2.188;2023-07-20T08:09:04;3.20;;;1.80;;
74689;SDS011;63221;51.860;-2.188;2023-07-20T08:11:29;2.87;;;1.90;;
74689;SDS011;63221;51.860;-2.188;2023-07-20T08:13:56;2.85;;;1.70;;
74689;SDS011;63221;51.860;-2.188;2023-07-20T08:16:22;4.00;;;1.77;;
74689;SDS011;63221;51.860;-2.188;2023-07-20T08:18:47;3.40;;;1.67;;
74689;SDS011;63221;51.860;-2.188;2023-07-20T08:21:12;3.10;;;1.53;;
74689;SDS011;63221;51.860;-2.188;2023-07-20T08:23:38;4.18;;;1.98;;
74689;SDS011;63221;51.860;-2.188;2023-07-20T08:26:03;3.43;;;1.80;;
74689;SDS011;63221;51.860;-2.188;2023-07-20T08:28:29;3.17;;;1.87;;
74689;SDS011;63221;51.860;-2.188;2023-07-20T08:30:54;2.67;;;2.17;;
74689;SDS011;63221;51.860;-2.188;2023-07-20T08:33:20;2.90;;;1.83;;
74689;SDS011;63221;51.860;-2.188;2023-07-20T08:35:45;2.72;;;2.15;;
74689;SDS011;63221;51.860;-2.188;2023-07-20T08:38:11;5.13;;;1.75;;
74689;SDS011;63221;51.860;-2.188;2023-07-20T08:40:41;2.90;;;1.70;;
74689;SDS011;63221;51.860;-2.188;2023-07-20T08:43:08;2.90;;;1.95;;
74689;SDS011;63221;51.860;-2.188;2023-07-20T08:45:34;2.53;;;1.80;;
74689;SDS011;63221;51.860;-2.188;2023-07-20T08:48:02;3.05;;;1.75;;
74689;SDS011;63221;51.860;-2.188;2023-07-20T08:50:30;3.20;;;1.40;;
74689;SDS011;63221;51.860;-2.188;2023-07-20T08:52:56;5.00;;;1.98;;
74689;SDS011;63221;51.860;-2.188;2023-07-20T08:55:23;3.00;;;1.80;;
74689;SDS011;63221;51.860;-2.188;2023-07-20T08:57:56;3.33;;;1.52;;
74689;SDS011;63221;51.860;-2.188;2023-07-20T09:00:22;2.05;;;1.35;;
74689;SDS011;63221;51.860;-2.188;2023-07-20T09:02:49;2.33;;;1.47;;
74689;SDS011;63221;51.860;-2.188;2023-07-20T09:05:16;2.88;;;2.00;;
74689;SDS011;63221;51.860;-2.188;2023-07-20T09:07:43;4.13;;;2.20;;
74689;SDS011;63221;51.860;-2.188;2023-07-20T09:10:08;2.25;;;1.40;;
74689;SDS011;63221;51.860;-2.188;2023-07-20T09:12:37;3.70;;;1.80;;
74689;SDS011;63221;51.860;-2.188;2023-07-20T09:15:04;2.20;;;1.40;;
74689;SDS011;63221;51.860;-2.188;2023-07-20T09:17:30;2.65;;;1.60;;
74689;SDS011;63221;51.860;-2.188;2023-07-20T09:19:56;3.50;;;1.83;;
74689;SDS011;63221;51.860;-2.188;2023-07-20T09:22:21;3.43;;;2.03;;
74689;SDS011;63221;51.860;-2.188;2023-07-20T09:24:47;2.30;;;1.20;;
74689;SDS011;63221;51.860;-2.188;2023-07-20T09:27:12;3.65;;;1.50;;
74689;SDS011;63221;51.860;-2.188;2023-07-20T09:29:47;3.07;;;1.60;;
74689;SDS011;63221;51.860;-2.188;2023-07-20T09:32:17;2.25;;;1.70;;
74689;SDS011;63221;51.860;-2.188;2023-07-20T09:34:43;1.90;;;1.30;;
74689;SDS011;63221;51.860;-2.188;2023-07-20T09:37:08;2.10;;;0.87;;
74689;SDS011;63221;51.860;-2.188;2023-07-20T09:39:41;3.03;;;1.40;;
74689;SDS011;63221;51.860;-2.188;2023-07-20T09:42:08;2.63;;;1.27;;
74689;SDS011;63221;51.860;-2.188;2023-07-20T09:44:34;2.00;;;1.50;;
74689;SDS011;63221;51.860;-2.188;2023-07-20T09:47:02;3.10;;;1.00;;
74689;SDS011;63221;51.860;-2.188;2023-07-20T09:49:28;3.90;;;1.40;;
74689;SDS011;63221;51.860;-2.188;2023-07-20T09:51:53;2.55;;;1.58;;
74689;SDS011;63221;51.860;-2.188;2023-07-20T09:54:21;2.00;;;1.57;;
74689;SDS011;63221;51.860;-2.188;2023-07-20T09:56:47;2.05;;;1.52;;
74689;SDS011;63221;51.860;-2.188;2023-07-20T09:59:14;2.80;;;1.67;;
74689;SDS011;63221;51.860;-2.188;2023-07-20T10:01:40;2.95;;;1.30;;
74689;SDS011;63221;51.860;-2.188;2023-07-20T10:04:07;2.20;;;0.97;;
74689;SDS011;63221;51.860;-2.188;2023-07-20T10:06:34;1.85;;;1.23;;
74689;SDS011;63221;51.860;-2.188;2023-07-20T10:09:02;2.63;;;1.50;;
74689;SDS011;63221;51.860;-2.188;2023-07-20T10:11:35;2.70;;;1.30;;
74689;SDS011;63221;51.860;-2.188;2023-07-20T10:14:04;1.95;;;1.40;;
74689;SDS011;63221;51.860;-2.188;2023-07-20T10:16:36;1.43;;;0.80;;
74689;SDS011;63221;51.860;-2.188;2023-07-20T10:19:11;1.77;;;1.00;;
74689;SDS011;63221;51.860;-2.188;2023-07-20T10:21:42;2.33;;;1.20;;
74689;SDS011;63221;51.860;-2.188;2023-07-20T10:24:10;2.42;;;1.10;;
74689;SDS011;63221;51.860;-2.188;2023-07-20T10:26:37;2.78;;;1.63;;
74689;SDS011;63221;51.860;-2.188;2023-07-20T10:29:03;2.23;;;1.60;;
74689;SDS011;63221;51.860;-2.188;2023-07-20T10:31:29;2.33;;;1.15;;
74689;SDS011;63221;51.860;-2.188;2023-07-20T10:33:58;2.47;;;1.45;;
74689;SDS011;63221;51.860;-2.188;2023-07-20T10:36:27;2.42;;;0.90;;
74689;SDS011;63221;51.860;-2.188;2023-07-20T10:38:54;3.17;;;1.73;;
74689;SDS011;63221;51.860;-2.188;2023-07-20T10:41:21;2.47;;;1.60;;
74689;SDS011;63221;51.860;-2.188;2023-07-20T10:43:51;2.28;;;0.93;;
74689;SDS011;63221;51.860;-2.188;2023-07-20T10:49:04;4.85;;;1.90;;
74689;SDS011;63221;51.860;-2.188;2023-07-20T10:54:33;2.77;;;1.30;;
74689;SDS011;63221;51.860;-2.188;2023-07-20T10:56:58;2.50;;;1.10;;
74689;SDS011;63221;51.860;-2.188;2023-07-20T10:59:53;2.17;;;1.50;;
74689;SDS011;63221;51.860;-2.188;2023-07-20T11:02:41;2.92;;;1.00;;
74689;SDS011;63221;51.860;-2.188;2023-07-20T11:05:31;2.03;;;1.30;;
74689;SDS011;63221;51.860;-2.188;2023-07-20T11:07:59;2.27;;;1.43;;
74689;SDS011;63221;51.860;-2.188;2023-07-20T11:10:24;1.65;;;0.98;;
74689;SDS011;63221;51.860;-2.188;2023-07-20T11:15:47;1.90;;;1.20;;
74689;SDS011;63221;51.860;-2.188;2023-07-20T11:18:18;3.50;;;1.50;;
74689;SDS011;63221;51.860;-2.188;2023-07-20T11:20:44;2.07;;;1.53;;
74689;SDS011;63221;51.860;-2.188;2023-07-20T11:23:15;2.78;;;1.40;;
74689;SDS011;63221;51.860;-2.188;2023-07-20T11:25:41;2.03;;;1.48;;
74689;SDS011;63221;51.860;-2.188;2023-07-20T11:28:07;3.77;;;1.83;;
74689;SDS011;63221;51.860;-2.188;2023-07-20T11:30:34;4.00;;;2.55;;
74689;SDS011;63221;51.860;-2.188;2023-07-20T11:32:59;3.00;;;1.50;;
74689;SDS011;63221;51.860;-2.188;2023-07-20T11:35:25;2.40;;;1.40;;
74689;SDS011;63221;51.860;-2.188;2023-07-20T11:37:50;2.30;;;1.50;;
74689;SDS011;63221;51.860;-2.188;2023-07-20T11:40:15;2.33;;;1.38;;
74689;SDS011;63221;51.860;-2.188;2023-07-20T11:42:41;2.17;;;1.20;;
74689;SDS011;63221;51.860;-2.188;2023-07-20T11:45:06;3.60;;;1.83;;
74689;SDS011;63221;51.860;-2.188;2023-07-20T11:47:32;2.17;;;1.67;;
74689;SDS011;63221;51.860;-2.188;2023-07-20T11:50:02;1.97;;;1.40;;
74689;SDS011;63221;51.860;-2.188;2023-07-20T11:52:28;1.73;;;1.35;;
74689;SDS011;63221;51.860;-2.188;2023-07-20T11:54:54;1.60;;;1.00;;
74689;SDS011;63221;51.860;-2.188;2023-07-20T11:57:20;2.67;;;1.60;;
74689;SDS011;63221;51.860;-2.188;2023-07-20T11:59:55;2.87;;;1.43;;
74689;SDS011;63221;51.860;-2.188;2023-07-20T12:02:29;2.03;;;1.33;;
74689;SDS011;63221;51.860;-2.188;2023-07-20T12:04:56;2.10;;;1.60;;
74689;SDS011;63221;51.860;-2.188;2023-07-20T12:07:22;4.28;;;1.40;;
74689;SDS011;63221;51.860;-2.188;2023-07-20T12:10:05;1.90;;;1.63;;
74689;SDS011;63221;51.860;-2.188;2023-07-20T12:12:32;1.83;;;1.25;;
74689;SDS011;63221;51.860;-2.188;2023-07-20T12:15:19;2.08;;;1.48;;
74689;SDS011;63221;51.860;-2.188;2023-07-20T12:17:45;4.35;;;1.63;;
74689;SDS011;63221;51.860;-2.188;2023-07-20T12:20:11;3.40;;;1.67;;
74689;SDS011;63221;51.860;-2.188;2023-07-20T12:22:38;3.60;;;1.38;;
74689;SDS011;63221;51.860;-2.188;2023-07-20T12:25:06;2.55;;;1.25;;
74689;SDS011;63221;51.860;-2.188;2023-07-20T12:27:32;2.50;;;1.60;;
74689;SDS011;63221;51.860;-2.188;2023-07-20T12:29:57;1.70;;;1.00;;
74689;SDS011;63221;51.860;-2.188;2023-07-20T12:32:23;2.63;;;1.67;;
74689;SDS011;63221;51.860;-2.188;2023-07-20T12:34:48;2.67;;;2.00;;
74689;SDS011;63221;51.860;-2.188;2023-07-20T12:37:13;4.07;;;2.15;;
74689;SDS011;63221;51.860;-2.188;2023-07-20T12:39:43;3.33;;;1.60;;
74689;SDS011;63221;51.860;-2.188;2023-07-20T12:42:12;2.35;;;1.52;;
74689;SDS011;63221;51.860;-2.188;2023-07-20T12:44:37;3.00;;;1.67;;
74689;SDS011;63221;51.860;-2.188;2023-07-20T12:47:03;2.77;;;1.70;;
74689;SDS011;63221;51.860;-2.188;2023-07-20T12:49:28;4.30;;;1.70;;
74689;SDS011;63221;51.860;-2.188;2023-07-20T12:51:54;2.13;;;1.43;;
74689;SDS011;63221;51.860;-2.188;2023-07-20T12:54:19;4.10;;;1.45;;
74689;SDS011;63221;51.860;-2.188;2023-07-20T12:56:44;3.03;;;1.40;;
74689;SDS011;63221;51.860;-2.188;2023-07-20T12:59:10;4.10;;;2.87;;
74689;SDS011;63221;51.860;-2.188;2023-07-20T13:01:35;4.20;;;1.63;;
74689;SDS011;63221;51.860;-2.188;2023-07-20T13:04:03;2.50;;;2.05;;
74689;SDS011;63221;51.860;-2.188;2023-07-20T13:06:28;2.38;;;1.85;;
74689;SDS011;63221;51.860;-2.188;2023-07-20T13:08:54;2.67;;;1.80;;
74689;SDS011;63221;51.860;-2.188;2023-07-20T13:11:21;2.85;;;2.17;;
74689;SDS011;63221;51.860;-2.188;2023-07-20T13:13:47;3.33;;;1.87;;
74689;SDS011;63221;51.860;-2.188;2023-07-20T13:16:13;3.80;;;1.77;;
74689;SDS011;63221;51.860;-2.188;2023-07-20T13:18:40;2.60;;;1.45;;
74689;SDS011;63221;51.860;-2.188;2023-07-20T13:21:05;2.07;;;1.50;;
74689;SDS011;63221;51.860;-2.188;2023-07-20T13:23:35;2.25;;;1.45;;
74689;SDS011;63221;51.860;-2.188;2023-07-20T13:26:00;3.10;;;1.20;;
74689;SDS011;63221;51.860;-2.188;2023-07-20T13:28:26;2.47;;;1.60;;
74689;SDS011;63221;51.860;-2.188;2023-07-20T13:30:51;4.15;;;1.70;;
74689;SDS011;63221;51.860;-2.188;2023-07-20T13:33:17;3.00;;;1.10;;
74689;SDS011;63221;51.860;-2.188;2023-07-20T13:35:42;1.80;;;1.07;;
74689;SDS011;63221;51.860;-2.188;2023-07-20T13:38:08;2.30;;;1.15;;
74689;SDS011;63221;51.860;-2.188;2023-07-20T13:40:34;2.00;;;1.50;;
74689;SDS011;63221;51.860;-2.188;2023-07-20T13:43:00;2.23;;;1.97;;
74689;SDS011;63221;51.860;-2.188;2023-07-20T13:45:26;2.30;;;0.75;;
74689;SDS011;63221;51.860;-2.188;2023-07-20T13:47:51;1.97;;;1.47;;
74689;SDS011;63221;51.860;-2.188;2023-07-20T13:50:16;1.67;;;1.07;;
74689;SDS011;63221;51.860;-2.188;2023-07-20T13:52:42;2.00;;;1.30;;
74689;SDS011;63221;51.860;-2.188;2023-07-20T13:55:07;1.83;;;1.13;;
74689;SDS011;63221;51.860;-2.188;2023-07-20T13:57:33;2.22;;;1.38;;
74689;SDS011;63221;51.860;-2.188;2023-07-20T13:59:58;2.33;;;1.43;;
74689;SDS011;63221;51.860;-2.188;2023-07-20T14:02:25;2.95;;;1.48;;
74689;SDS011;63221;51.860;-2.188;2023-07-20T14:04:51;1.65;;;1.50;;
74689;SDS011;63221;51.860;-2.188;2023-07-20T14:07:19;4.17;;;1.47;;
74689;SDS011;63221;51.860;-2.188;2023-07-20T14:09:45;2.03;;;1.25;;
74689;SDS011;63221;51.860;-2.188;2023-07-20T14:12:10;5.40;;;1.30;;
74689;SDS011;63221;51.860;-2.188;2023-07-20T14:14:39;3.45;;;1.95;;
74689;SDS011;63221;51.860;-2.188;2023-07-20T14:17:05;1.70;;;1.47;;
74689;SDS011;63221;51.860;-2.188;2023-07-20T14:19:31;2.45;;;1.30;;
74689;SDS011;63221;51.860;-2.188;2023-07-20T14:21:57;1.88;;;1.48;;
74689;SDS011;63221;51.860;-2.188;2023-07-20T14:24:24;1.97;;;1.57;;
74689;SDS011;63221;51.860;-2.188;2023-07-20T14:26:50;3.30;;;1.30;;
74689;SDS011;63221;51.860;-2.188;2023-07-20T14:29:16;1.90;;;1.33;;
74689;SDS011;63221;51.860;-2.188;2023-07-20T14:31:43;2.78;;;1.20;;
74689;SDS011;63221;51.860;-2.188;2023-07-20T14:34:08;4.15;;;1.10;;
74689;SDS011;63221;51.860;-2.188;2023-07-20T14:36:34;3.20;;;1.77;;
74689;SDS011;63221;51.860;-2.188;2023-07-20T14:38:59;2.90;;;1.60;;
74689;SDS011;63221;51.860;-2.188;2023-07-20T14:41:25;2.15;;;0.82;;
74689;SDS011;63221;51.860;-2.188;2023-07-20T14:43:51;2.37;;;1.50;;
74689;SDS011;63221;51.860;-2.188;2023-07-20T14:46:16;1.60;;;1.08;;
74689;SDS011;63221;51.860;-2.188;2023-07-20T14:48:42;2.47;;;1.20;;
74689;SDS011;63221;51.860;-2.188;2023-07-20T14:51:07;2.80;;;1.53;;
74689;SDS011;63221;51.860;-2.188;2023-07-20T14:53:33;2.22;;;1.38;;